Tilton, South Dakota
Current Conditions -  °F | °C
As of 5:15 PM on Friday 28 Nov 2014 (Local Time) from KSPF Reporting Station
Clear Clear  
Wind Chill: 12°   Ceiling: Unl
Heat Index: 12°   Visibility: 10mi
Dew Point: -6°   Wind: 17mph
Humidity: 28%   Direction: 230°SW
Pressure: 29.57"   Gusts: 24mph
Location:  44.253°N, 103.912°W
Report Text: KSPF 290015Z AUTO 23015G21KT 10SM CLR 12/M06 A2957 RMK AO2
Loading
Personal Weather Stations






























Interactive Weather Map New forecast layout! Learn more

10-Day Weather Forecast

Advertisements
Track Severe Weather on mobile